Time;durP1;ratioP1;P1;durP2;ratioP2;P2;SDS_P1;SDS_P2;PMS_P1;PMS_P2;Temp;Humidity;BMP_temperature;BMP_pressure;BME280_temperature;BME280_humidity;BME280_pressure;Samples;Min_cycle;Max_cycle;Signal;HPM_P1;HPM_P2
2022/06/17 00:00:54;;;;;;;2.05;1.20;;;;;;;;;;5080461;28;20032;-58
2022/06/17 00:06:40;;;;;;;3.10;1.83;;;;;;;;;;5059896;28;20036;-58
2022/06/17 00:09:32;;;;;;;2.92;1.92;;;;;;;;;;5084495;28;20526;-58
2022/06/17 00:12:14;;;;;;;2.20;1.40;;;;;;;;;;5085304;28;20366;-58
2022/06/17 00:18:09;;;;;;;2.90;1.83;;;;;;;;;;5083898;28;20023;-58
2022/06/17 00:21:20;;;;;;;;;;;;;;;;;;;;;
2022/06/17 00:24:10;;;;;;;2.53;1.48;;;;;;;;;;5084617;28;20436;-58
2022/06/17 00:26:54;;;;;;;3.30;1.57;;;;;;;;;;5071712;28;20493;-58
2022/06/17 00:32:26;;;;;;;2.33;1.60;;;;;;;;;;5084339;28;20040;-58
2022/06/17 00:35:08;;;;;;;3.90;2.00;;;;;;;;;;5084003;28;20028;-58
2022/06/17 00:40:43;;;;;;;3.00;1.45;;;;;;;;;;5041345;28;20071;-58
2022/06/17 00:43:17;;;;;;;3.97;2.00;;;;;;;;;;5042748;28;20033;-58
2022/06/17 00:45:58;;;;;;;2.80;1.60;;;;;;;;;;5042593;28;20112;-58
2022/06/17 00:48:28;;;;;;;6.55;1.70;;;;;;;;;;5054924;28;20033;-58
2022/06/17 00:50:59;;;;;;;2.63;1.83;;;;;;;;;;5081624;28;20051;-58
2022/06/17 00:53:54;;;;;;;3.03;1.50;;;;;;;;;;5081818;28;20032;-58
2022/06/17 01:00:07;;;;;;;3.10;2.00;;;;;;;;;;5020663;28;20030;-58
2022/06/17 01:02:50;;;;;;;4.47;1.75;;;;;;;;;;5020532;28;20038;-58
2022/06/17 01:05:35;;;;;;;;;;;;;;;;;;;;;
2022/06/17 01:11:08;;;;;;;4.97;2.38;;;;;;;;;;5078708;28;20038;-58
2022/06/17 01:13:56;;;;;;;2.45;1.52;;;;;;;;;;5080943;28;20029;-58
2022/06/17 01:16:46;;;;;;;3.80;1.90;;;;;;;;;;5082255;28;20059;-58
2022/06/17 01:19:43;;;;;;;2.17;1.33;;;;;;;;;;5081844;28;20107;-58
2022/06/17 01:22:37;;;;;;;2.65;1.70;;;;;;;;;;5081766;28;20045;-58
2022/06/17 01:25:22;;;;;;;3.15;1.85;;;;;;;;;;5066090;28;20035;-58
2022/06/17 01:28:15;;;;;;;2.78;1.52;;;;;;;;;;5081997;28;20033;-58
2022/06/17 01:31:09;;;;;;;5.30;2.40;;;;;;;;;;5060111;28;20047;-61
2022/06/17 01:34:05;;;;;;;3.65;1.90;;;;;;;;;;5084019;28;20066;-58
2022/06/17 01:36:37;;;;;;;2.30;1.50;;;;;;;;;;5082909;28;20095;-58
2022/06/17 01:39:21;;;;;;;2.17;1.58;;;;;;;;;;5086964;28;20036;-58
2022/06/17 01:45:35;;;;;;;2.72;1.98;;;;;;;;;;5076316;28;20039;-58
2022/06/17 01:48:34;;;;;;;5.90;2.05;;;;;;;;;;5088304;28;20040;-58
2022/06/17 01:51:19;;;;;;;4.30;1.65;;;;;;;;;;5095678;28;20032;-58
2022/06/17 01:54:31;;;;;;;2.90;1.85;;;;;;;;;;5082550;28;20374;-58
2022/06/17 01:57:01;;;;;;;2.78;1.77;;;;;;;;;;5098621;28;20039;-58
2022/06/17 01:59:49;;;;;;;3.42;2.10;;;;;;;;;;5103232;28;20339;-58
2022/06/17 02:02:38;;;;;;;4.28;1.58;;;;;;;;;;5104265;28;20054;-58
2022/06/17 02:08:23;;;;;;;2.90;1.83;;;;;;;;;;5040919;28;20084;-58
2022/06/17 02:10:51;;;;;;;6.93;1.60;;;;;;;;;;5041063;28;20045;-58
2022/06/17 02:13:30;;;;;;;4.38;2.00;;;;;;;;;;5021241;28;20034;-58
2022/06/17 02:16:04;;;;;;;2.50;1.77;;;;;;;;;;5021219;28;20041;-58
2022/06/17 02:18:33;;;;;;;2.80;1.77;;;;;;;;;;5022378;28;20491;-58
2022/06/17 02:27:24;;;;;;;4.28;1.77;;;;;;;;;;5056293;28;20029;-58
2022/06/17 02:30:18;;;;;;;3.63;2.00;;;;;;;;;;5038207;28;20071;-58
2022/06/17 02:33:01;;;;;;;2.60;1.58;;;;;;;;;;5044090;28;20026;-58
2022/06/17 02:35:57;;;;;;;2.58;1.42;;;;;;;;;;5060809;28;20067;-58
2022/06/17 02:38:39;;;;;;;2.70;1.60;;;;;;;;;;5008617;28;20030;-58
2022/06/17 02:41:45;;;;;;;4.80;2.05;;;;;;;;;;5039371;28;20048;-58
2022/06/17 02:50:40;;;;;;;2.80;2.13;;;;;;;;;;5062175;28;20031;-58
2022/06/17 02:56:45;;;;;;;;;;;;;;;;;;;;;
2022/06/17 02:59:48;;;;;;;2.60;1.75;;;;;;;;;;5103931;28;20120;-58
2022/06/17 03:05:44;;;;;;;4.35;1.90;;;;;;;;;;5041425;28;20039;-58
2022/06/17 03:08:23;;;;;;;2.38;1.48;;;;;;;;;;5102459;28;20092;-58
2022/06/17 03:11:28;;;;;;;2.17;1.40;;;;;;;;;;5103472;28;20075;-58
2022/06/17 03:14:05;;;;;;;2.60;1.83;;;;;;;;;;5101588;28;20070;-58
2022/06/17 03:16:53;;;;;;;4.28;2.17;;;;;;;;;;5101848;28;20143;-58
2022/06/17 03:19:32;;;;;;;2.60;1.48;;;;;;;;;;5085789;28;20020;-58
2022/06/17 03:22:02;;;;;;;2.47;1.67;;;;;;;;;;5103592;28;20047;-58
2022/06/17 03:27:59;;;;;;;4.88;2.13;;;;;;;;;;5041690;28;20265;-59
2022/06/17 03:30:41;;;;;;;3.60;1.65;;;;;;;;;;5041739;28;20034;-58
2022/06/17 03:33:43;;;;;;;3.20;1.80;;;;;;;;;;5032207;28;20451;-58
2022/06/17 03:36:40;;;;;;;2.92;1.95;;;;;;;;;;5077769;28;20070;-58
2022/06/17 03:39:25;;;;;;;2.40;1.75;;;;;;;;;;5075420;28;20049;-58
2022/06/17 03:42:26;;;;;;;2.83;2.17;;;;;;;;;;5096372;28;20028;-58
2022/06/17 03:45:02;;;;;;;3.35;1.83;;;;;;;;;;5074657;28;20039;-57
2022/06/17 03:51:04;;;;;;;3.97;1.92;;;;;;;;;;5055614;28;20579;-58
2022/06/17 04:00:27;;;;;;;;;;;;;;;;;;;;;
2022/06/17 04:05:51;;;;;;;2.22;1.42;;;;;;;;;;5056337;28;20417;-58
2022/06/17 04:08:27;;;;;;;2.58;1.55;;;;;;;;;;5056078;28;20436;-58
2022/06/17 04:11:15;;;;;;;4.40;1.77;;;;;;;;;;5055806;28;20025;-58
2022/06/17 04:13:57;;;;;;;5.20;1.77;;;;;;;;;;5056309;28;20024;-58
2022/06/17 04:16:44;;;;;;;2.33;1.65;;;;;;;;;;5055937;28;20037;-58
2022/06/17 04:19:18;;;;;;;2.90;1.83;;;;;;;;;;5022415;28;20462;-58
2022/06/17 04:22:31;;;;;;;3.47;1.90;;;;;;;;;;5056142;28;20053;-58
2022/06/17 04:25:20;;;;;;;2.85;1.48;;;;;;;;;;5011823;28;20443;-58
2022/06/17 04:28:08;;;;;;;2.35;1.63;;;;;;;;;;5047962;28;20095;-58
2022/06/17 04:30:52;;;;;;;4.03;2.20;;;;;;;;;;5068733;28;20469;-58
2022/06/17 04:33:44;;;;;;;3.00;2.05;;;;;;;;;;5088927;28;20104;-58
2022/06/17 04:36:55;;;;;;;3.08;1.88;;;;;;;;;;5108062;28;20040;-58
2022/06/17 04:39:44;;;;;;;2.85;1.65;;;;;;;;;;5028334;28;20041;-58
2022/06/17 04:42:54;;;;;;;2.03;1.60;;;;;;;;;;5089248;28;20077;-57
2022/06/17 04:45:49;;;;;;;4.03;1.63;;;;;;;;;;5108145;28;20492;-58
2022/06/17 04:48:40;;;;;;;3.30;1.90;;;;;;;;;;5107328;28;20065;-58
2022/06/17 04:54:16;;;;;;;3.17;2.05;;;;;;;;;;5105646;28;20492;-58
2022/06/17 04:57:04;;;;;;;4.20;1.80;;;;;;;;;;5107266;28;20050;-58
2022/06/17 04:59:49;;;;;;;2.20;1.70;;;;;;;;;;5106347;28;20032;-58
2022/06/17 05:08:50;;;;;;;2.50;1.73;;;;;;;;;;5098687;28;20032;-58
2022/06/17 05:11:29;;;;;;;3.25;1.80;;;;;;;;;;5102784;28;20036;-58
2022/06/17 05:14:17;;;;;;;5.60;1.98;;;;;;;;;;5107844;28;20074;-58
2022/06/17 05:16:53;;;;;;;3.30;1.80;;;;;;;;;;5089441;28;20047;-58
2022/06/17 05:19:40;;;;;;;6.30;1.80;;;;;;;;;;5087708;28;20028;-58
2022/06/17 05:25:44;;;;;;;2.80;1.55;;;;;;;;;;5090568;28;20062;-58
2022/06/17 05:31:49;;;;;;;2.60;1.70;;;;;;;;;;5060730;28;20036;-58
2022/06/17 05:34:37;;;;;;;5.30;1.65;;;;;;;;;;5096470;28;20028;-58
2022/06/17 05:37:12;;;;;;;4.18;1.83;;;;;;;;;;5096536;28;20071;-57
2022/06/17 05:39:44;;;;;;;2.17;1.60;;;;;;;;;;5053386;28;20407;-58
2022/06/17 05:42:43;;;;;;;3.60;2.15;;;;;;;;;;5054578;28;20049;-58
2022/06/17 05:48:37;;;;;;;2.53;1.90;;;;;;;;;;5050005;28;20064;-58
2022/06/17 05:51:32;;;;;;;2.60;1.73;;;;;;;;;;5053766;28;20546;-58
2022/06/17 05:54:21;;;;;;;3.08;1.80;;;;;;;;;;5053543;28;20025;-58
2022/06/17 05:57:27;;;;;;;;;;;;;;;;;;;;;
2022/06/17 06:00:38;;;;;;;4.40;1.75;;;;;;;;;;5052735;28;20409;-58
2022/06/17 06:06:28;;;;;;;3.10;2.08;;;;;;;;;;5049528;28;20112;-58
2022/06/17 06:09:25;;;;;;;2.83;2.25;;;;;;;;;;5052872;28;20382;-58
2022/06/17 06:12:53;;;;;;;3.40;2.50;;;;;;;;;;5053595;28;20474;-58
2022/06/17 06:15:26;;;;;;;2.95;1.98;;;;;;;;;;4993297;28;20038;-59
2022/06/17 06:18:24;;;;;;;5.78;1.98;;;;;;;;;;4977071;28;20037;-59
2022/06/17 06:21:04;;;;;;;7.40;2.40;;;;;;;;;;4993429;28;20030;-58
2022/06/17 06:23:39;;;;;;;3.38;2.38;;;;;;;;;;4993681;28;20476;-59
2022/06/17 06:29:37;;;;;;;2.63;2.08;;;;;;;;;;4961585;28;20034;-59
2022/06/17 06:32:36;;;;;;;2.88;2.10;;;;;;;;;;4985383;28;20674;-59
2022/06/17 06:38:21;;;;;;;3.35;2.05;;;;;;;;;;4916174;29;20083;-59
2022/06/17 06:41:13;;;;;;;3.42;2.45;;;;;;;;;;4915727;29;20474;-59
2022/06/17 06:44:06;;;;;;;;;;;;;;;;;;;;;
2022/06/17 06:47:14;;;;;;;4.25;2.33;;;;;;;;;;4998878;28;20044;-59
2022/06/17 06:49:45;;;;;;;4.50;2.38;;;;;;;;;;5013875;28;20041;-59
2022/06/17 06:52:25;;;;;;;3.60;1.75;;;;;;;;;;5015649;28;20037;-59
2022/06/17 06:55:29;;;;;;;3.67;2.55;;;;;;;;;;5032884;28;20018;-59
2022/06/17 06:58:35;;;;;;;;;;;;;;;;;;;;;
2022/06/17 07:01:01;;;;;;;4.20;2.20;;;;;;;;;;5027892;28;20029;-59
2022/06/17 07:03:39;;;;;;;5.22;2.10;;;;;;;;;;5032534;28;20025;-57
2022/06/17 07:06:26;;;;;;;3.88;2.08;;;;;;;;;;5056859;28;20513;-57
2022/06/17 07:09:27;;;;;;;3.22;2.15;;;;;;;;;;5066916;28;20099;-58
2022/06/17 07:12:22;;;;;;;6.22;2.58;;;;;;;;;;5071250;28;20033;-58
2022/06/17 07:15:17;;;;;;;3.25;1.98;;;;;;;;;;5072559;28;20036;-58
2022/06/17 07:18:03;;;;;;;2.88;1.85;;;;;;;;;;5061043;28;20039;-58
2022/06/17 07:21:02;;;;;;;3.05;2.05;;;;;;;;;;5074776;28;20393;-59
2022/06/17 07:24:13;;;;;;;;;;;;;;;;;;;;;
2022/06/17 07:27:26;;;;;;;4.05;2.15;;;;;;;;;;5058836;28;20117;-59
2022/06/17 07:30:09;;;;;;;6.43;2.88;;;;;;;;;;5013980;28;20034;-59
2022/06/17 07:32:44;;;;;;;3.60;2.67;;;;;;;;;;5056117;28;20036;-59
2022/06/17 07:35:31;;;;;;;3.38;2.47;;;;;;;;;;5073843;28;20059;-59
2022/06/17 07:47:03;;;;;;;5.55;3.13;;;;;;;;;;5012862;28;20046;-59
2022/06/17 07:49:51;;;;;;;6.18;2.88;;;;;;;;;;5021780;28;20073;-59
2022/06/17 07:55:41;;;;;;;4.97;3.10;;;;;;;;;;5024677;28;20569;-59
2022/06/17 07:58:16;;;;;;;;;;;;;;;;;;5080922;28;20263;-59
2022/06/17 08:01:09;;;;;;;7.20;2.92;;;;;;;;;;5081211;28;20246;-59
2022/06/17 08:03:50;;;;;;;4.65;2.70;;;;;;;;;;5081246;28;20025;-59
2022/06/17 08:06:37;;;;;;;4.22;2.90;;;;;;;;;;5083171;28;20103;-59
2022/06/17 08:09:15;;;;;;;4.72;2.92;;;;;;;;;;5078425;28;20021;-58
2022/06/17 08:12:13;;;;;;;4.88;3.13;;;;;;;;;;5080538;28;20027;-58
2022/06/17 08:14:56;;;;;;;4.95;2.88;;;;;;;;;;5078855;28;20088;-58
2022/06/17 08:17:54;;;;;;;5.40;2.50;;;;;;;;;;5067986;28;20033;-58
2022/06/17 08:20:51;;;;;;;5.13;2.65;;;;;;;;;;5076476;28;20124;-58
2022/06/17 08:26:35;;;;;;;;;;;;;;;;;;;;;
2022/06/17 08:29:03;;;;;;;7.60;2.88;;;;;;;;;;5060482;28;20104;-58
2022/06/17 08:31:32;;;;;;;3.10;2.33;;;;;;;;;;5061290;28;20044;-58
2022/06/17 08:34:08;;;;;;;4.75;3.00;;;;;;;;;;5045563;28;20037;-58
2022/06/17 08:36:52;;;;;;;3.28;2.83;;;;;;;;;;5061731;28;20033;-58
2022/06/17 08:39:34;;;;;;;3.80;3.05;;;;;;;;;;5061482;28;20058;-58
2022/06/17 08:42:31;;;;;;;4.00;2.72;;;;;;;;;;5061164;28;20049;-58
2022/06/17 08:48:09;;;;;;;4.28;2.50;;;;;;;;;;5027413;28;20053;-58
2022/06/17 08:50:56;;;;;;;4.03;2.80;;;;;;;;;;5082942;28;20016;-58
2022/06/17 08:56:56;;;;;;;3.42;2.55;;;;;;;;;;5021031;28;20133;-58
2022/06/17 08:59:40;;;;;;;3.17;2.13;;;;;;;;;;5005685;28;20033;-58
2022/06/17 09:02:29;;;;;;;4.50;2.40;;;;;;;;;;5013141;28;20034;-58
2022/06/17 09:05:15;;;;;;;5.32;2.80;;;;;;;;;;5009665;28;20042;-58
2022/06/17 09:08:00;;;;;;;3.42;2.35;;;;;;;;;;5030392;28;20092;-59
2022/06/17 09:10:35;;;;;;;3.50;2.15;;;;;;;;;;5060790;28;20044;-58
2022/06/17 09:13:26;;;;;;;5.10;2.78;;;;;;;;;;5078831;28;20120;-58
2022/06/17 09:16:01;;;;;;;2.92;2.22;;;;;;;;;;5057044;28;20128;-58
2022/06/17 09:19:03;;;;;;;3.28;2.63;;;;;;;;;;5076351;28;20020;-58
2022/06/17 09:25:07;;;;;;;3.13;1.83;;;;;;;;;;5057936;28;20029;-58
2022/06/17 09:27:52;;;;;;;3.47;2.47;;;;;;;;;;5075519;28;20031;-59
2022/06/17 09:30:26;;;;;;;4.70;2.28;;;;;;;;;;5074204;28;20064;-58
2022/06/17 09:33:29;;;;;;;2.85;2.00;;;;;;;;;;5053738;28;20530;-59
2022/06/17 09:36:06;;;;;;;3.35;2.22;;;;;;;;;;5053169;28;20148;-58
2022/06/17 09:38:47;;;;;;;10.23;2.33;;;;;;;;;;5037439;28;20570;-58
2022/06/17 09:41:34;;;;;;;2.40;1.70;;;;;;;;;;5053244;28;20041;-59
2022/06/17 09:44:32;;;;;;;3.22;2.08;;;;;;;;;;5036239;28;20402;-58
2022/06/17 09:53:37;;;;;;;4.88;2.60;;;;;;;;;;4980661;28;20027;-59
2022/06/17 09:56:34;;;;;;;3.28;2.30;;;;;;;;;;4972372;28;20055;-59
2022/06/17 09:59:25;;;;;;;3.03;1.83;;;;;;;;;;5013072;28;20049;-59
2022/06/17 10:02:00;;;;;;;8.32;2.60;;;;;;;;;;5075197;28;20063;-59
2022/06/17 10:04:52;;;;;;;3.25;2.17;;;;;;;;;;5075389;28;20035;-59
2022/06/17 10:11:21;;;;;;;;;;;;;;;;;;;;;
2022/06/17 10:14:09;;;;;;;;;;;;;;;;;;;;;
2022/06/17 10:20:03;;;;;;;3.05;1.65;;;;;;;;;;5075301;28;20024;-58
2022/06/17 10:23:04;;;;;;;2.60;1.70;;;;;;;;;;5016020;28;20037;-58
2022/06/17 10:25:48;;;;;;;2.78;1.75;;;;;;;;;;5033081;28;20044;-59
2022/06/17 10:28:31;;;;;;;3.05;2.00;;;;;;;;;;5072116;28;20045;-59
2022/06/17 10:31:16;;;;;;;4.55;1.77;;;;;;;;;;5074326;28;20021;-59
2022/06/17 10:36:45;;;;;;;2.70;1.40;;;;;;;;;;5074977;28;20126;-58
2022/06/17 10:39:41;;;;;;;3.85;1.60;;;;;;;;;;5074437;28;20060;-59
2022/06/17 10:42:48;;;;;;;3.33;1.75;;;;;;;;;;5087492;28;20040;-59
2022/06/17 10:48:39;;;;;;;2.92;1.65;;;;;;;;;;5076341;28;20073;-59
2022/06/17 10:51:29;;;;;;;2.45;1.73;;;;;;;;;;5094745;28;20032;-59
2022/06/17 10:54:24;;;;;;;6.57;2.60;;;;;;;;;;5071587;28;20040;-59
2022/06/17 10:56:58;;;;;;;3.13;1.80;;;;;;;;;;5095379;28;20036;-59
2022/06/17 10:59:50;;;;;;;2.60;1.55;;;;;;;;;;5073934;28;20035;-59
2022/06/17 11:02:35;;;;;;;;;;;;;;;;;;;;;
2022/06/17 11:05:08;;;;;;;2.28;1.40;;;;;;;;;;5095589;28;20031;-59
2022/06/17 11:14:06;;;;;;;2.67;1.33;;;;;;;;;;5094512;28;20058;-59
2022/06/17 11:17:05;;;;;;;3.53;1.83;;;;;;;;;;5093955;28;20051;-59
2022/06/17 11:19:51;;;;;;;2.97;1.58;;;;;;;;;;5094884;28;20039;-59
2022/06/17 11:22:39;;;;;;;2.65;1.50;;;;;;;;;;5051407;28;20032;-59
2022/06/17 11:25:29;;;;;;;2.00;1.23;;;;;;;;;;5051344;28;20066;-59
2022/06/17 11:28:14;;;;;;;2.80;1.45;;;;;;;;;;5034723;28;20024;-59
2022/06/17 11:31:05;;;;;;;2.17;1.58;;;;;;;;;;5034120;28;20548;-59
2022/06/17 11:33:56;;;;;;;4.45;1.75;;;;;;;;;;5051369;28;20474;-59
2022/06/17 11:36:51;;;;;;;3.25;1.83;;;;;;;;;;5034231;28;20056;-59
2022/06/17 11:40:10;;;;;;;3.28;1.60;;;;;;;;;;5051501;28;20040;-59
2022/06/17 11:42:59;;;;;;;2.33;1.27;;;;;;;;;;5050345;28;20048;-59
2022/06/17 11:45:25;;;;;;;;;;;;;;;;;;5052144;28;20547;-59
2022/06/17 11:48:09;;;;;;;3.70;1.70;;;;;;;;;;5034430;28;19936;-59
2022/06/17 11:50:59;;;;;;;4.68;1.33;;;;;;;;;;5051467;28;20041;-58
2022/06/17 11:53:44;;;;;;;2.38;1.10;;;;;;;;;;5070711;28;20518;-59
2022/06/17 11:56:30;;;;;;;2.15;1.33;;;;;;;;;;5072191;28;20043;-59
2022/06/17 11:59:12;;;;;;;1.95;1.38;;;;;;;;;;5071841;28;20024;-59
2022/06/17 12:01:56;;;;;;;3.83;1.10;;;;;;;;;;5071846;28;20029;-59
2022/06/17 12:04:41;;;;;;;3.78;2.10;;;;;;;;;;5077705;28;20024;-59
2022/06/17 12:07:29;;;;;;;;;;;;;;;;;;;;;
2022/06/17 12:10:23;;;;;;;2.60;1.60;;;;;;;;;;5077549;28;20028;-59
2022/06/17 12:13:27;;;;;;;2.97;1.63;;;;;;;;;;5076965;28;20029;-58
2022/06/17 12:16:22;;;;;;;2.75;1.20;;;;;;;;;;5061125;28;20039;-59
2022/06/17 12:28:37;;;;;;;2.20;1.40;;;;;;;;;;5077199;28;20064;-59
2022/06/17 12:31:18;;;;;;;2.55;1.38;;;;;;;;;;5076525;28;20064;-59
2022/06/17 12:36:59;;;;;;;1.70;0.90;;;;;;;;;;5014973;28;20038;-59
2022/06/17 12:39:37;;;;;;;2.72;1.38;;;;;;;;;;5077731;28;20468;-59
2022/06/17 12:45:22;;;;;;;1.77;0.93;;;;;;;;;;5077295;28;20067;-59
2022/06/17 12:54:27;;;;;;;6.95;1.77;;;;;;;;;;5076911;28;20027;-58
2022/06/17 12:57:23;;;;;;;2.13;1.15;;;;;;;;;;5077296;28;20039;-58
2022/06/17 13:00:09;;;;;;;1.98;1.00;;;;;;;;;;5077405;28;20443;-58
2022/06/17 13:02:54;;;;;;;1.40;0.70;;;;;;;;;;5076775;28;20047;-58
2022/06/17 13:05:43;;;;;;;2.13;1.25;;;;;;;;;;5076607;28;20024;-58
2022/06/17 13:08:36;;;;;;;1.38;0.70;;;;;;;;;;5075092;28;20037;-58
2022/06/17 13:11:43;;;;;;;2.13;1.17;;;;;;;;;;5075152;28;20035;-58
2022/06/17 13:14:36;;;;;;;1.75;1.08;;;;;;;;;;5075551;28;20024;-58
2022/06/17 13:17:25;;;;;;;1.95;1.10;;;;;;;;;;5077061;28;20060;-58
2022/06/17 13:20:07;;;;;;;1.48;0.70;;;;;;;;;;5074602;28;20079;-58
2022/06/17 13:23:02;;;;;;;3.17;1.35;;;;;;;;;;5076435;28;20029;-58
2022/06/17 13:26:03;;;;;;;;;;;;;;;;;;;;;
2022/06/17 13:28:39;;;;;;;;;;;;;;;;;;5076246;28;20377;-58
2022/06/17 13:31:18;;;;;;;2.17;0.82;;;;;;;;;;5073645;28;20251;-60
2022/06/17 13:33:54;;;;;;;2.67;1.27;;;;;;;;;;5074571;28;20377;-59
2022/06/17 13:36:54;;;;;;;1.45;0.80;;;;;;;;;;5073911;28;20469;-59
2022/06/17 13:39:54;;;;;;;2.75;1.73;;;;;;;;;;5074283;28;20028;-60
2022/06/17 13:42:22;;;;;;;;;;;;;;;;;;5074076;28;20052;-59
2022/06/17 13:45:12;;;;;;;1.77;0.75;;;;;;;;;;5075556;28;20353;-59
2022/06/17 13:48:16;;;;;;;2.65;1.00;;;;;;;;;;5075565;28;20059;-59
2022/06/17 13:50:46;;;;;;;1.40;0.88;;;;;;;;;;5074250;28;20024;-59
2022/06/17 13:53:40;;;;;;;1.98;1.08;;;;;;;;;;5076021;28;20025;-60
2022/06/17 13:56:32;;;;;;;2.20;1.45;;;;;;;;;;5075979;28;20043;-58
2022/06/17 13:59:51;;;;;;;2.60;1.15;;;;;;;;;;5074969;28;20025;-58
2022/06/17 14:02:35;;;;;;;2.17;0.95;;;;;;;;;;5053536;28;20029;-58
2022/06/17 14:08:43;;;;;;;3.50;1.88;;;;;;;;;;5053305;28;20063;-60
2022/06/17 14:14:18;;;;;;;1.42;0.70;;;;;;;;;;5053278;28;20589;-59
2022/06/17 14:17:03;;;;;;;2.10;1.20;;;;;;;;;;5052631;28;20104;-59
2022/06/17 14:19:50;;;;;;;1.90;1.17;;;;;;;;;;5035908;28;20025;-60
2022/06/17 14:22:46;;;;;;;;;;;;;;;;;;;;;
2022/06/17 14:25:33;;;;;;;2.72;0.80;;;;;;;;;;5041727;28;20043;-59
2022/06/17 14:28:38;;;;;;;3.40;1.08;;;;;;;;;;5071836;28;20024;-59
2022/06/17 14:31:42;;;;;;;2.35;1.33;;;;;;;;;;5035378;28;20025;-59
2022/06/17 14:34:22;;;;;;;2.10;1.02;;;;;;;;;;5053199;28;20021;-58
2022/06/17 14:37:07;;;;;;;1.80;0.80;;;;;;;;;;5051933;28;20160;-57
2022/06/17 14:39:49;;;;;;;2.40;0.93;;;;;;;;;;5059436;28;20454;-58
2022/06/17 14:42:32;;;;;;;1.40;0.90;;;;;;;;;;5072348;28;20450;-57
2022/06/17 14:45:31;;;;;;;2.90;1.20;;;;;;;;;;5073485;28;20115;-57
2022/06/17 14:48:17;;;;;;;1.25;0.68;;;;;;;;;;5073916;28;20453;-57
2022/06/17 14:51:01;;;;;;;1.90;1.10;;;;;;;;;;5074807;28;20485;-58
2022/06/17 14:53:27;;;;;;;2.45;1.23;;;;;;;;;;5073968;28;20024;-58
2022/06/17 14:56:19;;;;;;;1.30;0.70;;;;;;;;;;5072289;28;20043;-58
2022/06/17 14:59:04;;;;;;;2.25;1.13;;;;;;;;;;5073955;28;20021;-58
2022/06/17 15:02:02;;;;;;;2.50;1.30;;;;;;;;;;5072284;28;20032;-58
2022/06/17 15:04:52;;;;;;;4.47;0.98;;;;;;;;;;5073586;28;20021;-58
2022/06/17 15:07:23;;;;;;;1.65;1.00;;;;;;;;;;5073301;28;20481;-59
2022/06/17 15:10:16;;;;;;;1.77;1.10;;;;;;;;;;5067593;28;20095;-60
2022/06/17 15:15:39;;;;;;;3.90;0.75;;;;;;;;;;5073653;28;20146;-60
2022/06/17 15:18:23;;;;;;;1.30;0.60;;;;;;;;;;5073557;28;20108;-59
2022/06/17 15:21:12;;;;;;;;;;;;;;;;;;;;;
2022/06/17 15:24:05;;;;;;;1.92;1.17;;;;;;;;;;5074578;28;20021;-59
2022/06/17 15:26:50;;;;;;;1.80;1.08;;;;;;;;;;5072182;28;20028;-59
2022/06/17 15:29:42;;;;;;;0.80;0.47;;;;;;;;;;5074446;28;20024;-59
2022/06/17 15:32:21;;;;;;;1.60;0.90;;;;;;;;;;5072636;28;20413;-59
2022/06/17 15:34:52;;;;;;;1.80;0.70;;;;;;;;;;5073444;28;20055;-59
2022/06/17 15:37:27;;;;;;;1.63;0.90;;;;;;;;;;5071823;28;20549;-59
2022/06/17 15:40:19;;;;;;;1.58;0.60;;;;;;;;;;5072501;28;20036;-59
2022/06/17 15:42:58;;;;;;;1.65;1.00;;;;;;;;;;5050021;28;20049;-59
2022/06/17 15:45:28;;;;;;;2.10;0.90;;;;;;;;;;5070678;28;20032;-59
2022/06/17 15:48:17;;;;;;;2.00;1.02;;;;;;;;;;5073697;28;20035;-58
2022/06/17 15:51:04;;;;;;;2.85;1.13;;;;;;;;;;5067891;28;20116;-58
2022/06/17 15:53:45;;;;;;;1.98;1.05;;;;;;;;;;5071794;28;20021;-57
2022/06/17 15:56:50;;;;;;;2.22;1.30;;;;;;;;;;5087565;28;20081;-58
2022/06/17 15:59:48;;;;;;;1.48;0.73;;;;;;;;;;5071784;28;20123;-58
2022/06/17 16:02:19;;;;;;;1.85;1.00;;;;;;;;;;5073119;28;20025;-59
2022/06/17 16:05:08;;;;;;;1.70;0.90;;;;;;;;;;5073160;28;20032;-59
2022/06/17 16:08:11;;;;;;;5.13;1.38;;;;;;;;;;5070360;28;20032;-58
2022/06/17 16:16:41;;;;;;;2.35;1.13;;;;;;;;;;5070092;28;20036;-59
2022/06/17 16:19:23;;;;;;;1.10;0.52;;;;;;;;;;5072842;28;20013;-58
2022/06/17 16:22:18;;;;;;;1.17;0.75;;;;;;;;;;5071899;28;20029;-62
2022/06/17 16:25:07;;;;;;;1.80;0.93;;;;;;;;;;5071642;28;20031;-59
2022/06/17 16:27:53;;;;;;;1.98;1.17;;;;;;;;;;5073811;28;20501;-59
2022/06/17 16:30:52;;;;;;;2.67;0.57;;;;;;;;;;5072835;28;20032;-59
2022/06/17 16:33:28;;;;;;;1.63;1.30;;;;;;;;;;5072573;28;20078;-59
2022/06/17 16:36:12;;;;;;;1.75;0.88;;;;;;;;;;5072862;28;20033;-59
2022/06/17 16:39:08;;;;;;;2.63;1.02;;;;;;;;;;5071287;28;20029;-59
2022/06/17 16:44:58;;;;;;;1.88;1.05;;;;;;;;;;5073081;28;20577;-59
2022/06/17 16:47:35;;;;;;;1.50;0.85;;;;;;;;;;5071318;28;20039;-59
2022/06/17 16:56:26;;;;;;;1.33;0.80;;;;;;;;;;5075428;28;20354;-59
2022/06/17 16:59:11;;;;;;;2.63;1.33;;;;;;;;;;5075872;28;20102;-59
2022/06/17 17:01:43;;;;;;;1.85;1.02;;;;;;;;;;5076728;28;20044;-59
2022/06/17 17:04:20;;;;;;;3.72;1.10;;;;;;;;;;5091455;28;20025;-60
2022/06/17 17:06:50;;;;;;;2.10;0.85;;;;;;;;;;5073586;28;20040;-60
2022/06/17 17:09:41;;;;;;;2.05;1.08;;;;;;;;;;5075264;28;20052;-60
2022/06/17 17:12:36;;;;;;;1.90;0.85;;;;;;;;;;5076416;28;20036;-59
2022/06/17 17:15:21;;;;;;;2.70;1.05;;;;;;;;;;5074158;28;20043;-60
2022/06/17 17:18:04;;;;;;;6.40;1.02;;;;;;;;;;5076828;28;20020;-59
2022/06/17 17:23:35;;;;;;;2.38;0.90;;;;;;;;;;5064889;28;20043;-61
2022/06/17 17:26:13;;;;;;;1.50;0.82;;;;;;;;;;5075520;28;20031;-61
2022/06/17 17:28:56;;;;;;;1.75;1.00;;;;;;;;;;5091684;28;20378;-61
2022/06/17 17:31:31;;;;;;;1.38;0.88;;;;;;;;;;5076308;28;20029;-61
2022/06/17 17:34:14;;;;;;;2.15;1.20;;;;;;;;;;5076962;28;20028;-61
2022/06/17 17:36:42;;;;;;;1.90;1.13;;;;;;;;;;5075890;28;20071;-61
2022/06/17 17:39:34;;;;;;;1.83;1.02;;;;;;;;;;5075346;28;20041;-61
2022/06/17 17:42:05;;;;;;;1.60;1.10;;;;;;;;;;5075869;28;20012;-61
2022/06/17 17:44:32;;;;;;;1.42;0.73;;;;;;;;;;5075334;28;20024;-60
2022/06/17 17:50:41;;;;;;;1.70;1.00;;;;;;;;;;5075103;28;20032;-60
2022/06/17 17:53:34;;;;;;;1.83;1.00;;;;;;;;;;5053063;28;20115;-60
2022/06/17 17:56:53;;;;;;;2.00;1.20;;;;;;;;;;5073290;28;20040;-60
2022/06/17 17:59:12;;;;;;;2.88;1.02;;;;;;;;;;5067254;28;20051;-60
2022/06/17 18:01:53;;;;;;;1.50;0.90;;;;;;;;;;5074959;28;20461;-61
2022/06/17 18:04:24;;;;;;;2.10;1.00;;;;;;;;;;5074925;28;20021;-61
2022/06/17 18:07:07;;;;;;;1.90;1.10;;;;;;;;;;5073487;28;20083;-61
2022/06/17 18:09:58;;;;;;;1.70;0.75;;;;;;;;;;5073703;28;20485;-60
2022/06/17 18:12:24;;;;;;;1.48;0.80;;;;;;;;;;5071587;28;20033;-61
2022/06/17 18:14:59;;;;;;;2.72;1.17;;;;;;;;;;5074802;28;20013;-61
2022/06/17 18:17:32;;;;;;;2.40;1.05;;;;;;;;;;5073475;28;20028;-61
2022/06/17 18:19:58;;;;;;;4.07;0.98;;;;;;;;;;5072319;28;20389;-61
2022/06/17 18:22:33;;;;;;;1.50;0.80;;;;;;;;;;5073005;28;20111;-61
2022/06/17 18:25:20;;;;;;;3.15;1.08;;;;;;;;;;5072298;28;20486;-61
2022/06/17 18:27:50;;;;;;;2.05;1.02;;;;;;;;;;5054535;28;20098;-61
2022/06/17 18:30:26;;;;;;;2.80;1.38;;;;;;;;;;5072531;28;20070;-59
2022/06/17 18:33:03;;;;;;;2.45;1.08;;;;;;;;;;5069637;28;20119;-60
2022/06/17 18:35:40;;;;;;;2.17;1.17;;;;;;;;;;5055116;28;20072;-60
2022/06/17 18:38:10;;;;;;;1.80;0.95;;;;;;;;;;5055814;28;20120;-60
2022/06/17 18:40:39;;;;;;;2.20;1.17;;;;;;;;;;5055458;28;20067;-60
2022/06/17 18:43:06;;;;;;;2.13;1.15;;;;;;;;;;5055048;28;20056;-60
2022/06/17 18:45:50;;;;;;;4.75;1.70;;;;;;;;;;5066540;28;20041;-60
2022/06/17 18:48:17;;;;;;;2.08;1.48;;;;;;;;;;5054875;28;20035;-60
2022/06/17 18:50:57;;;;;;;3.17;1.33;;;;;;;;;;5060343;28;20531;-60
2022/06/17 18:53:42;;;;;;;2.25;1.15;;;;;;;;;;5089265;28;20503;-60
2022/06/17 18:56:15;;;;;;;2.70;1.50;;;;;;;;;;5073699;28;20036;-59
2022/06/17 18:58:45;;;;;;;2.65;1.38;;;;;;;;;;5071911;28;20401;-60
2022/06/17 19:01:26;;;;;;;2.08;1.55;;;;;;;;;;5074193;28;20021;-60
2022/06/17 19:04:00;;;;;;;3.42;2.13;;;;;;;;;;5074160;28;20040;-60
2022/06/17 19:06:49;;;;;;;;;;;;;;;;;;;;;
2022/06/17 19:18:02;;;;;;;2.65;1.65;;;;;;;;;;5087231;28;20044;-61
2022/06/17 19:20:51;;;;;;;;;;;;;;;;;;;;;
2022/06/17 19:23:27;;;;;;;2.58;1.55;;;;;;;;;;5054652;28;20036;-60
2022/06/17 19:26:22;;;;;;;;;;;;;;;;;;;;;
2022/06/17 19:29:00;;;;;;;4.40;2.10;;;;;;;;;;5073423;28;20025;-61
2022/06/17 19:31:40;;;;;;;2.75;1.98;;;;;;;;;;5089403;28;20025;-60
2022/06/17 19:34:29;;;;;;;2.63;2.10;;;;;;;;;;5072181;28;20064;-60
2022/06/17 19:37:21;;;;;;;3.10;2.00;;;;;;;;;;5072403;28;20041;-60
2022/06/17 19:40:07;;;;;;;3.25;1.85;;;;;;;;;;5074330;28;20024;-61
2022/06/17 19:42:52;;;;;;;3.25;1.83;;;;;;;;;;5078966;28;20501;-61
2022/06/17 19:45:50;;;;;;;3.72;1.65;;;;;;;;;;5094515;28;20392;-61
2022/06/17 19:48:29;;;;;;;3.28;2.25;;;;;;;;;;5071619;28;20036;-61
2022/06/17 19:51:26;;;;;;;2.97;1.65;;;;;;;;;;5075797;28;20012;-61
2022/06/17 19:54:40;;;;;;;4.13;2.00;;;;;;;;;;5075416;28;20016;-61
2022/06/17 19:56:48;;;;;;;2.47;1.55;;;;;;;;;;5085436;28;20553;-61
2022/06/17 19:59:16;;;;;;;3.17;1.83;;;;;;;;;;5092793;28;20032;-61
2022/06/17 20:02:07;;;;;;;5.97;2.40;;;;;;;;;;5093884;28;20027;-61
2022/06/17 20:04:57;;;;;;;;;;;;;;;;;;;;;
2022/06/17 20:07:27;;;;;;;3.38;2.30;;;;;;;;;;5094936;28;20360;-61
2022/06/17 20:10:08;;;;;;;3.00;2.25;;;;;;;;;;5091341;28;20547;-61
2022/06/17 20:12:48;;;;;;;;;;;;;;;;;;5094404;28;20028;-61
2022/06/17 20:15:22;;;;;;;;;;;;;;;;;;5094312;28;19904;-61